createdAt,value
2023-03-01T00:01:27.537Z,13.20
2023-03-01T00:03:55.547Z,12.10
2023-03-01T00:06:23.318Z,13.10
2023-03-01T00:08:51.034Z,12.87
2023-03-01T00:11:22.941Z,12.93
2023-03-01T00:13:51.023Z,13.17
2023-03-01T00:16:19.876Z,12.23
2023-03-01T00:18:47.194Z,12.60
2023-03-01T00:21:15.012Z,13.63
2023-03-01T00:23:42.360Z,13.50
2023-03-01T00:26:11.338Z,14.70
2023-03-01T00:28:38.710Z,13.73
2023-03-01T00:31:10.800Z,12.77
2023-03-01T00:33:38.372Z,12.90
2023-03-01T00:36:06.051Z,14.80
2023-03-01T00:38:34.951Z,13.53
2023-03-01T00:41:06.767Z,13.50
2023-03-01T00:43:36.018Z,13.90
2023-03-01T00:46:05.106Z,14.00
2023-03-01T00:48:32.422Z,14.73
2023-03-01T00:51:01.289Z,15.00
2023-03-01T00:53:28.641Z,13.60
2023-03-01T00:55:57.525Z,14.87
2023-03-01T00:58:24.979Z,14.67
2023-03-01T01:00:53.495Z,14.53
2023-03-01T01:03:21.037Z,14.37
2023-03-01T01:05:48.393Z,14.77
2023-03-01T01:08:15.815Z,14.30
2023-03-01T01:10:45.100Z,13.97
2023-03-01T01:13:12.747Z,14.00
2023-03-01T01:15:40.123Z,14.43
2023-03-01T01:18:07.930Z,14.67
2023-03-01T01:20:37.624Z,14.70
2023-03-01T01:23:07.438Z,14.60
2023-03-01T01:25:36.617Z,14.67
2023-03-01T01:28:04.060Z,15.67
2023-03-01T01:30:31.475Z,14.80
2023-03-01T01:32:58.841Z,13.63
2023-03-01T01:35:26.189Z,15.60
2023-03-01T01:37:53.510Z,15.77
2023-03-01T01:40:20.850Z,15.13
2023-03-01T01:42:48.207Z,14.60
2023-03-01T01:45:32.067Z,14.63
2023-03-01T01:48:00.947Z,15.30
2023-03-01T01:50:30.121Z,14.70
2023-03-01T01:52:57.468Z,15.13
2023-03-01T01:55:26.367Z,14.70
2023-03-01T01:57:55.222Z,14.97
2023-03-01T02:00:24.068Z,14.33
2023-03-01T02:02:54.904Z,15.77
2023-03-01T02:05:23.933Z,15.03
2023-03-01T02:07:51.907Z,14.33
2023-03-01T02:10:19.314Z,14.90
2023-03-01T02:12:47.364Z,14.20
2023-03-01T02:15:14.742Z,15.30
2023-03-01T02:17:42.352Z,14.10
2023-03-01T02:20:26.504Z,14.47
2023-03-01T02:22:55.220Z,14.40
2023-03-01T02:25:39.361Z,14.17
2023-03-01T02:28:14.137Z,15.23
2023-03-01T02:30:46.216Z,15.70
2023-03-01T02:33:13.568Z,16.30
2023-03-01T02:35:41.245Z,16.60
2023-03-01T02:38:09.908Z,15.60
2023-03-01T02:40:38.967Z,15.17
2023-03-01T02:43:09.048Z,14.87
2023-03-01T02:45:36.416Z,16.10
2023-03-01T02:48:03.755Z,15.83
2023-03-01T02:50:32.793Z,15.17
2023-03-01T02:53:04.625Z,14.87
2023-03-01T02:55:32.099Z,16.00
2023-03-01T02:58:01.174Z,15.30
2023-03-01T03:00:30.132Z,15.40
2023-03-01T03:02:59.144Z,15.40
2023-03-01T03:05:30.230Z,16.10
2023-03-01T03:07:58.446Z,14.80
2023-03-01T03:10:27.592Z,17.00
2023-03-01T03:12:56.541Z,15.17
2023-03-01T03:15:24.468Z,16.07
2023-03-01T03:17:52.940Z,16.80
2023-03-01T03:20:21.859Z,17.10
2023-03-01T03:22:50.318Z,15.27
2023-03-01T03:25:18.414Z,15.80
2023-03-01T03:27:46.424Z,15.63
2023-03-01T03:30:15.320Z,16.40
2023-03-01T03:32:45.244Z,16.97
2023-03-01T03:35:12.608Z,16.23
2023-03-01T03:37:58.971Z,15.40
2023-03-01T03:40:26.800Z,16.63
2023-03-01T03:42:54.344Z,17.07
2023-03-01T03:45:21.955Z,16.10
2023-03-01T03:47:49.632Z,17.37
2023-03-01T03:50:17.947Z,16.63
2023-03-01T03:52:45.460Z,16.90
2023-03-01T03:55:13.295Z,19.17
2023-03-01T03:57:42.166Z,19.10
2023-03-01T04:00:12.878Z,16.97
2023-03-01T04:02:43.998Z,18.37
2023-03-01T04:05:13.084Z,19.37
2023-03-01T04:07:40.566Z,17.30
2023-03-01T04:10:09.595Z,17.50
2023-03-01T04:12:37.117Z,17.63
2023-03-01T04:15:07.001Z,19.27
2023-03-01T04:17:34.880Z,17.27
2023-03-01T04:20:03.864Z,18.47
2023-03-01T04:22:32.916Z,17.20
2023-03-01T04:25:01.900Z,19.30
2023-03-01T04:27:29.235Z,18.93
2023-03-01T04:29:56.577Z,18.67
2023-03-01T04:32:24.143Z,17.60
2023-03-01T04:34:51.458Z,18.90
2023-03-01T04:37:18.797Z,18.67
2023-03-01T04:39:49.110Z,18.87
2023-03-01T04:42:17.491Z,20.73
2023-03-01T04:44:45.234Z,19.00
2023-03-01T04:47:12.556Z,20.20
2023-03-01T04:49:39.979Z,22.43
2023-03-01T04:52:07.332Z,17.87
2023-03-01T04:54:35.650Z,19.30
2023-03-01T04:57:03.755Z,20.57
2023-03-01T04:59:31.104Z,18.67
2023-03-01T05:01:58.466Z,19.20
2023-03-01T05:04:26.363Z,19.20
2023-03-01T05:06:54.440Z,18.73
2023-03-01T05:09:21.760Z,21.00
2023-03-01T05:11:49.108Z,20.90
2023-03-01T05:14:16.456Z,20.20
2023-03-01T05:16:43.851Z,19.20
2023-03-01T05:19:16.014Z,19.80
2023-03-01T05:22:04.017Z,21.43
2023-03-01T05:24:32.176Z,19.30
2023-03-01T05:27:00.028Z,19.40
2023-03-01T05:29:28.449Z,20.10
2023-03-01T05:31:56.763Z,20.60
2023-03-01T05:34:28.383Z,18.60
2023-03-01T05:36:56.036Z,19.30
2023-03-01T05:39:24.933Z,20.80
2023-03-01T05:41:55.497Z,19.80
2023-03-01T05:44:22.879Z,18.50
2023-03-01T05:46:50.294Z,20.80
2023-03-01T05:49:17.847Z,20.80
2023-03-01T05:51:46.723Z,19.80
2023-03-01T05:54:14.054Z,21.20
2023-03-01T05:56:41.425Z,19.33
2023-03-01T05:59:08.784Z,18.60
2023-03-01T06:01:37.164Z,19.50
2023-03-01T06:04:05.310Z,21.30
2023-03-01T06:06:36.052Z,18.60
2023-03-01T06:09:03.400Z,18.30
2023-03-01T06:11:30.733Z,20.90
2023-03-01T06:13:58.073Z,20.90
2023-03-01T06:16:27.295Z,21.03
2023-03-01T06:18:55.226Z,18.30
2023-03-01T06:21:22.510Z,21.23
2023-03-01T06:23:49.958Z,20.30
2023-03-01T06:26:17.318Z,19.67
2023-03-01T06:28:46.297Z,20.87
2023-03-01T06:31:13.937Z,20.43
2023-03-01T06:33:45.367Z,20.00
2023-03-01T06:36:12.731Z,20.20
2023-03-01T06:38:41.435Z,19.97
2023-03-01T06:41:08.757Z,20.17
2023-03-01T06:43:36.456Z,20.73
2023-03-01T06:46:07.628Z,20.97
2023-03-01T06:48:35.279Z,21.40
2023-03-01T06:51:02.785Z,20.83
2023-03-01T06:53:30.830Z,20.97
2023-03-01T06:56:00.837Z,20.73
2023-03-01T06:58:28.189Z,22.37
2023-03-01T07:00:55.488Z,20.27
2023-03-01T07:03:23.290Z,21.57
2023-03-01T07:05:52.766Z,21.60
2023-03-01T07:08:20.118Z,22.03
2023-03-01T07:10:47.393Z,21.87
2023-03-01T07:13:14.782Z,20.43
2023-03-01T07:15:42.487Z,19.13
2023-03-01T07:18:09.783Z,20.13
2023-03-01T07:20:37.112Z,20.10
2023-03-01T07:23:04.457Z,23.03
2023-03-01T07:25:31.771Z,20.03
2023-03-01T07:27:59.485Z,20.70
2023-03-01T07:30:28.527Z,18.77
2023-03-01T07:32:56.494Z,17.80
2023-03-01T07:35:24.685Z,18.97
2023-03-01T07:37:52.202Z,18.97
2023-03-01T07:40:19.488Z,22.53
2023-03-01T07:42:46.817Z,22.90
2023-03-01T07:45:15.479Z,23.40
2023-03-01T07:47:42.894Z,25.00
2023-03-01T07:50:10.705Z,18.40
2023-03-01T07:52:38.075Z,19.73
2023-03-01T07:55:05.726Z,17.57
2023-03-01T07:57:32.983Z,18.23
2023-03-01T08:00:00.298Z,16.70
2023-03-01T08:02:27.561Z,19.57
2023-03-01T08:04:54.838Z,18.67
2023-03-01T08:07:22.099Z,17.53
2023-03-01T08:09:49.343Z,18.93
2023-03-01T08:12:17.682Z,18.00
2023-03-01T08:14:45.021Z,17.43
2023-03-01T08:17:13.859Z,15.17
2023-03-01T08:19:41.146Z,17.80
2023-03-01T08:22:08.471Z,17.47
2023-03-01T08:24:35.725Z,17.80
2023-03-01T08:27:03.762Z,18.20
2023-03-01T08:29:34.683Z,16.97
2023-03-01T08:32:02.127Z,16.67
2023-03-01T08:34:29.491Z,16.70
2023-03-01T08:36:56.900Z,16.97
2023-03-01T08:39:24.224Z,16.10
2023-03-01T08:41:51.684Z,16.00
2023-03-01T08:44:19.061Z,17.23
2023-03-01T08:46:50.701Z,16.90
2023-03-01T08:49:18.995Z,16.63
2023-03-01T08:51:46.704Z,16.77
2023-03-01T08:54:15.784Z,18.07
2023-03-01T08:56:43.454Z,15.70
2023-03-01T08:59:11.765Z,15.43
2023-03-01T09:01:39.327Z,17.67
2023-03-01T09:04:07.065Z,16.40
2023-03-01T09:06:35.324Z,16.17
2023-03-01T09:09:03.688Z,16.67
2023-03-01T09:11:31.031Z,16.77
2023-03-01T09:13:58.643Z,15.43
2023-03-01T09:16:26.057Z,16.20
2023-03-01T09:18:54.338Z,17.10
2023-03-01T09:21:37.656Z,15.40
2023-03-01T09:23:52.609Z,15.33
2023-03-01T09:26:22.001Z,17.27
2023-03-01T09:28:50.488Z,16.57
2023-03-01T09:31:18.594Z,16.63
2023-03-01T09:33:47.898Z,17.13
2023-03-01T09:36:16.711Z,16.40
2023-03-01T09:38:44.129Z,16.17
2023-03-01T09:41:12.945Z,16.13
2023-03-01T09:43:52.598Z,16.87
2023-03-01T09:46:22.292Z,16.63
2023-03-01T09:48:54.431Z,17.17
2023-03-01T09:51:23.231Z,16.53
2023-03-01T09:53:50.622Z,15.80
2023-03-01T09:56:19.934Z,16.47
2023-03-01T09:58:48.800Z,17.70
2023-03-01T10:01:33.751Z,16.60
2023-03-01T10:04:08.596Z,15.80
2023-03-01T10:06:36.058Z,15.93
2023-03-01T10:09:07.518Z,16.17
2023-03-01T10:11:36.920Z,15.30
2023-03-01T10:14:06.298Z,17.70
2023-03-01T10:16:47.219Z,15.60
2023-03-01T10:19:16.111Z,17.07
2023-03-01T10:21:44.972Z,15.83
2023-03-01T10:24:13.913Z,15.80
2023-03-01T10:26:55.166Z,17.43
2023-03-01T10:29:25.068Z,15.87
2023-03-01T10:31:53.167Z,14.50
2023-03-01T10:34:22.135Z,16.53
2023-03-01T10:36:51.006Z,15.60
2023-03-01T10:39:19.938Z,16.10
2023-03-01T10:41:54.685Z,15.50
2023-03-01T10:44:41.707Z,14.17
2023-03-01T10:47:10.577Z,16.87
2023-03-01T10:49:37.976Z,15.83
2023-03-01T10:52:22.228Z,16.50
2023-03-01T10:54:57.231Z,15.20
2023-03-01T10:57:40.626Z,14.63
2023-03-01T11:00:27.093Z,14.63
2023-03-01T11:03:01.626Z,14.50
2023-03-01T11:05:33.457Z,15.37
2023-03-01T11:08:02.449Z,13.47
2023-03-01T11:10:33.918Z,15.30
2023-03-01T11:13:09.069Z,15.00
2023-03-01T11:15:36.591Z,14.23
2023-03-01T11:18:13.877Z,13.43
2023-03-01T11:20:35.688Z,14.40
2023-03-01T11:23:07.946Z,13.87
2023-03-01T11:25:37.026Z,14.63
2023-03-01T11:28:05.712Z,14.07
2023-03-01T11:30:34.697Z,14.17
2023-03-01T11:33:03.609Z,13.53
2023-03-01T11:35:32.925Z,13.87
2023-03-01T11:38:04.391Z,14.60
2023-03-01T11:40:53.720Z,14.20
2023-03-01T11:43:22.396Z,14.67
2023-03-01T11:45:53.956Z,12.70
2023-03-01T11:48:22.971Z,13.80
2023-03-01T11:50:50.962Z,12.63
2023-03-01T11:53:22.807Z,12.97
2023-03-01T11:56:08.242Z,12.33
2023-03-01T11:58:49.131Z,12.80
2023-03-01T12:01:23.764Z,11.37
2023-03-01T12:04:01.592Z,11.70
2023-03-01T12:06:30.455Z,11.80
2023-03-01T12:09:05.081Z,12.23
2023-03-01T12:11:43.432Z,11.60
2023-03-01T12:14:25.222Z,11.17
2023-03-01T12:16:56.912Z,10.97
2023-03-01T12:19:25.778Z,10.53
2023-03-01T12:21:57.391Z,11.53
2023-03-01T12:24:26.187Z,11.90
2023-03-01T12:27:01.080Z,11.83
2023-03-01T12:29:32.713Z,11.40
2023-03-01T12:32:19.806Z,11.30
2023-03-01T12:34:51.536Z,11.37
2023-03-01T12:37:35.641Z,11.03
2023-03-01T12:40:17.257Z,9.73
2023-03-01T12:42:47.757Z,10.20
2023-03-01T12:45:26.089Z,9.83
2023-03-01T12:47:57.842Z,10.57
2023-03-01T12:50:26.733Z,10.83
2023-03-01T12:52:55.579Z,11.27
2023-03-01T12:55:24.379Z,10.70
2023-03-01T12:58:05.079Z,11.10
2023-03-01T13:00:33.942Z,9.87
2023-03-01T13:03:05.668Z,11.10
2023-03-01T13:05:37.620Z,11.13
2023-03-01T13:08:12.429Z,10.10
2023-03-01T13:10:49.645Z,11.80
2023-03-01T13:13:23.642Z,9.50
2023-03-01T13:15:53.035Z,10.50
2023-03-01T13:18:23.840Z,11.60
2023-03-01T13:20:52.199Z,12.53
2023-03-01T13:23:24.116Z,21.20
2023-03-01T13:26:01.821Z,11.30
2023-03-01T13:28:48.973Z,11.17
2023-03-01T13:31:20.750Z,11.23
2023-03-01T13:33:51.902Z,11.03
2023-03-01T13:36:35.282Z,11.47
2023-03-01T13:39:04.389Z,10.87
2023-03-01T13:41:42.392Z,11.00
2023-03-01T13:44:27.072Z,11.30
2023-03-01T13:46:56.009Z,11.67
2023-03-01T13:49:25.238Z,10.30
2023-03-01T13:51:52.886Z,10.47
2023-03-01T13:54:33.207Z,10.40
2023-03-01T13:57:01.840Z,10.70
2023-03-01T13:59:30.937Z,10.07
2023-03-01T14:01:59.439Z,10.20
2023-03-01T14:04:28.720Z,10.03
2023-03-01T14:07:14.987Z,10.30
2023-03-01T14:09:43.513Z,10.07
2023-03-01T14:12:22.169Z,10.20
2023-03-01T14:14:54.028Z,10.80
2023-03-01T14:17:31.710Z,11.20
2023-03-01T14:20:05.092Z,10.70
2023-03-01T14:22:33.966Z,10.60
2023-03-01T14:25:02.816Z,11.00
2023-03-01T14:27:31.671Z,9.90
2023-03-01T14:30:00.375Z,10.03
2023-03-01T14:32:29.278Z,10.30
2023-03-01T14:34:57.164Z,10.60
2023-03-01T14:37:32.192Z,9.90
2023-03-01T14:40:00.278Z,10.73
2023-03-01T14:42:31.725Z,11.00
2023-03-01T14:44:59.880Z,10.03
2023-03-01T14:47:28.733Z,11.10
2023-03-01T14:50:00.507Z,11.63
2023-03-01T14:52:29.565Z,11.67
2023-03-01T14:54:57.067Z,11.53
2023-03-01T14:57:25.940Z,11.27
2023-03-01T14:59:55.403Z,10.23
2023-03-01T15:02:24.301Z,10.50
2023-03-01T15:04:53.313Z,11.80
2023-03-01T15:07:20.762Z,10.27
2023-03-01T15:09:48.373Z,11.37
2023-03-01T15:12:32.553Z,10.00
2023-03-01T15:15:04.791Z,10.40
2023-03-01T15:17:33.469Z,10.47
2023-03-01T15:20:01.245Z,11.60
2023-03-01T15:22:28.686Z,11.70
2023-03-01T15:24:56.592Z,10.50
2023-03-01T15:27:24.926Z,10.73
2023-03-01T15:29:53.726Z,9.70
2023-03-01T15:32:31.829Z,10.07
2023-03-01T15:34:59.966Z,10.00
2023-03-01T15:37:41.099Z,10.90
2023-03-01T15:40:22.293Z,9.77
2023-03-01T15:42:49.626Z,10.20
2023-03-01T15:45:20.168Z,9.70
2023-03-01T15:47:55.112Z,10.00
2023-03-01T15:50:23.526Z,9.97
2023-03-01T15:52:51.025Z,10.20
2023-03-01T15:55:22.934Z,9.83
2023-03-01T15:57:50.909Z,10.13
2023-03-01T16:00:18.618Z,9.20
2023-03-01T16:02:45.984Z,10.43
2023-03-01T16:05:24.468Z,9.87
2023-03-01T16:07:52.527Z,9.30
2023-03-01T16:10:20.241Z,10.07
2023-03-01T16:12:49.606Z,9.20
2023-03-01T16:15:18.884Z,9.30
2023-03-01T16:17:47.676Z,9.40
2023-03-01T16:20:28.128Z,9.13
2023-03-01T16:22:47.708Z,9.67
2023-03-01T16:25:16.457Z,9.30
2023-03-01T16:27:44.750Z,9.30
2023-03-01T16:30:12.774Z,9.47
2023-03-01T16:32:40.675Z,8.87
2023-03-01T16:35:08.995Z,8.90
2023-03-01T16:37:36.973Z,9.00
2023-03-01T16:40:08.387Z,10.00
2023-03-01T16:42:36.672Z,8.80
2023-03-01T16:45:09.136Z,7.87
2023-03-01T16:47:35.656Z,8.90
2023-03-01T16:50:02.998Z,8.23
2023-03-01T16:52:30.388Z,8.83
2023-03-01T16:54:58.013Z,8.50
2023-03-01T16:57:25.328Z,10.97
2023-03-01T16:59:54.506Z,8.23
2023-03-01T17:02:22.006Z,11.30
2023-03-01T17:04:56.591Z,9.63
2023-03-01T17:07:24.070Z,9.00
2023-03-01T17:09:51.420Z,8.60
2023-03-01T17:12:18.744Z,8.30
2023-03-01T17:14:46.078Z,8.30
2023-03-01T17:17:13.573Z,8.80
2023-03-01T17:19:42.566Z,7.83
2023-03-01T17:22:09.879Z,8.90
2023-03-01T17:24:38.591Z,8.70
2023-03-01T17:27:06.182Z,8.37
2023-03-01T17:29:33.863Z,8.97
2023-03-01T17:32:01.302Z,9.83
2023-03-01T17:34:28.737Z,8.40
2023-03-01T17:36:56.052Z,8.20
2023-03-01T17:39:30.886Z,8.73
2023-03-01T17:41:57.929Z,8.47
2023-03-01T17:44:25.495Z,7.83
2023-03-01T17:46:52.796Z,8.60
2023-03-01T17:49:20.229Z,8.60
2023-03-01T17:51:47.493Z,8.63
2023-03-01T17:54:14.941Z,8.03
2023-03-01T17:56:42.667Z,8.83
2023-03-01T17:59:10.003Z,9.20
2023-03-01T18:01:37.365Z,7.90
2023-03-01T18:04:04.659Z,8.87
2023-03-01T18:06:32.274Z,8.20
2023-03-01T18:08:59.839Z,8.67
2023-03-01T18:11:27.179Z,8.60
2023-03-01T18:13:55.490Z,8.63
2023-03-01T18:16:23.462Z,8.10
2023-03-01T18:18:54.616Z,8.90
2023-03-01T18:21:23.381Z,9.43
2023-03-01T18:23:51.128Z,8.73
2023-03-01T18:26:20.245Z,8.50
2023-03-01T18:28:47.751Z,8.33
2023-03-01T18:31:17.464Z,9.70
2023-03-01T18:33:45.239Z,12.00
2023-03-01T18:36:29.244Z,8.53
2023-03-01T18:38:56.773Z,9.00
2023-03-01T18:41:25.578Z,10.17
2023-03-01T18:43:53.274Z,9.07
2023-03-01T18:46:20.684Z,9.30
2023-03-01T18:48:48.646Z,9.83
2023-03-01T18:51:17.399Z,9.37
2023-03-01T18:53:44.951Z,9.67
2023-03-01T18:56:12.638Z,9.30
2023-03-01T18:58:40.101Z,9.43
2023-03-01T19:01:09.055Z,10.20
2023-03-01T19:03:36.586Z,10.33
2023-03-01T19:06:04.945Z,10.10
2023-03-01T19:08:32.296Z,9.50
2023-03-01T19:11:01.447Z,9.17
2023-03-01T19:13:28.807Z,9.63
2023-03-01T19:16:03.408Z,9.67
2023-03-01T19:18:30.797Z,10.20
2023-03-01T19:21:04.200Z,9.67
2023-03-01T19:23:31.658Z,10.60
2023-03-01T19:26:00.119Z,11.03
2023-03-01T19:28:27.471Z,9.93
2023-03-01T19:31:02.297Z,9.70
2023-03-01T19:33:30.541Z,9.70
2023-03-01T19:35:58.873Z,10.17
2023-03-01T19:38:26.728Z,10.93
2023-03-01T19:40:54.169Z,11.50
2023-03-01T19:43:21.633Z,10.60
2023-03-01T19:45:53.105Z,10.57
2023-03-01T19:48:21.032Z,10.67
2023-03-01T19:50:48.633Z,11.20
2023-03-01T19:53:16.585Z,10.30
2023-03-01T19:55:44.192Z,9.77
2023-03-01T19:58:11.608Z,10.27
2023-03-01T20:00:39.839Z,10.90
2023-03-01T20:03:07.225Z,11.07
2023-03-01T20:05:35.193Z,10.17
2023-03-01T20:08:02.793Z,12.10
2023-03-01T20:10:31.190Z,10.23
2023-03-01T20:12:58.758Z,10.83
2023-03-01T20:15:26.256Z,11.17
2023-03-01T20:17:54.341Z,12.20
2023-03-01T20:20:21.874Z,12.20
2023-03-01T20:22:49.198Z,12.17
2023-03-01T20:25:16.554Z,12.00
2023-03-01T20:27:45.607Z,11.40
2023-03-01T20:30:13.903Z,12.30
2023-03-01T20:32:41.487Z,12.80
2023-03-01T20:35:09.265Z,13.20
2023-03-01T20:37:36.595Z,13.13
2023-03-01T20:40:04.726Z,13.77
2023-03-01T20:42:32.187Z,13.23
2023-03-01T20:44:59.526Z,13.30
2023-03-01T20:47:27.148Z,12.93
2023-03-01T20:49:55.349Z,10.43
2023-03-01T20:52:22.760Z,11.13
2023-03-01T20:54:50.090Z,12.80
2023-03-01T20:57:17.452Z,11.60
2023-03-01T20:59:44.739Z,12.10
2023-03-01T21:02:12.076Z,11.87
2023-03-01T21:04:39.440Z,10.33
2023-03-01T21:07:06.766Z,11.93
2023-03-01T21:09:34.142Z,12.17
2023-03-01T21:12:04.112Z,12.00
2023-03-01T21:14:33.284Z,11.20
2023-03-01T21:17:01.009Z,11.73
2023-03-01T21:19:28.340Z,11.47
2023-03-01T21:21:55.583Z,12.80
2023-03-01T21:24:22.914Z,11.10
2023-03-01T21:26:50.246Z,11.57
2023-03-01T21:29:17.568Z,12.53
2023-03-01T21:31:44.931Z,12.90
2023-03-01T21:34:13.317Z,12.00
2023-03-01T21:36:40.670Z,12.53
2023-03-01T21:39:08.217Z,11.27
2023-03-01T21:41:37.025Z,12.60
2023-03-01T21:44:06.390Z,12.03
2023-03-01T21:46:36.256Z,11.30
2023-03-01T21:49:04.671Z,12.53
2023-03-01T21:51:32.270Z,11.80
2023-03-01T21:54:02.089Z,13.20
2023-03-01T21:56:31.567Z,12.33
2023-03-01T21:58:59.228Z,13.47
2023-03-01T22:01:27.654Z,12.43
2023-03-01T22:03:55.838Z,12.00
2023-03-01T22:06:24.631Z,12.97
2023-03-01T22:08:55.002Z,12.83
2023-03-01T22:11:22.863Z,12.63
2023-03-01T22:13:51.939Z,12.03
2023-03-01T22:16:20.378Z,12.73
2023-03-01T22:18:47.694Z,12.40
2023-03-01T22:21:17.281Z,11.00
2023-03-01T22:23:44.859Z,12.43
2023-03-01T22:26:22.478Z,12.20
2023-03-01T22:28:49.752Z,11.60
2023-03-01T22:31:17.173Z,11.47
2023-03-01T22:33:45.604Z,12.43
2023-03-01T22:36:12.960Z,12.73
2023-03-01T22:38:41.434Z,13.00
2023-03-01T22:41:08.861Z,11.03
2023-03-01T22:43:36.282Z,12.13
2023-03-01T22:46:11.179Z,12.80
2023-03-01T22:48:38.573Z,12.23
2023-03-01T22:51:06.019Z,12.40
2023-03-01T22:53:33.749Z,13.07
2023-03-01T22:56:02.604Z,11.80
2023-03-01T22:58:29.870Z,12.40
2023-03-01T23:00:57.205Z,13.40
2023-03-01T23:03:24.573Z,12.47
2023-03-01T23:05:51.960Z,12.07
2023-03-01T23:08:19.300Z,12.33
2023-03-01T23:10:46.602Z,12.63
2023-03-01T23:13:13.857Z,13.60
2023-03-01T23:15:42.841Z,12.43
2023-03-01T23:18:10.150Z,11.20
2023-03-01T23:20:37.733Z,13.33
2023-03-01T23:23:05.086Z,12.70
2023-03-01T23:25:32.350Z,12.50
2023-03-01T23:27:59.669Z,13.90
2023-03-01T23:30:27.010Z,13.70
2023-03-01T23:32:54.644Z,12.27
2023-03-01T23:35:21.949Z,12.90
2023-03-01T23:37:49.240Z,11.93
2023-03-01T23:40:16.811Z,12.70
2023-03-01T23:42:44.147Z,12.80
2023-03-01T23:45:12.682Z,12.20
2023-03-01T23:47:39.976Z,13.80
2023-03-01T23:50:07.496Z,16.50
2023-03-01T23:52:36.372Z,16.60
2023-03-01T23:55:04.953Z,14.97
2023-03-01T23:57:32.301Z,14.03
